Time;durP1;ratioP1;P1;durP2;ratioP2;P2;SDS_P1;SDS_P2;PMS_P1;PMS_P2;Temp;Humidity;BMP_temperature;BMP_pressure;BME280_temperature;BME280_humidity;BME280_pressure;Samples;Min_cycle;Max_cycle;Signal;HPM_P1;HPM_P2
2024/01/08 00:02:24;;;;;;;10.15;4.35;;;-0.90;99.90;;;;;;4979502;28;20382;-76
2024/01/08 00:04:50;;;;;;;7.60;4.05;;;-0.90;99.90;;;;;;4991166;28;20416;-76
2024/01/08 00:07:15;;;;;;;8.50;4.65;;;-0.90;99.90;;;;;;4979332;28;20110;-79
2024/01/08 00:09:41;;;;;;;11.20;4.72;;;-0.90;99.90;;;;;;4989417;28;20054;-76
2024/01/08 00:12:07;;;;;;;9.23;4.72;;;-0.60;99.90;;;;;;4999683;28;20046;-76
2024/01/08 00:14:32;;;;;;;8.57;4.60;;;-0.90;99.90;;;;;;4990972;28;20413;-77
2024/01/08 00:16:58;;;;;;;9.55;5.15;;;-0.90;99.90;;;;;;4982533;28;20043;-79
2024/01/08 00:19:23;;;;;;;8.02;4.57;;;-1.00;99.90;;;;;;4989318;28;20041;-77
2024/01/08 00:21:49;;;;;;;9.13;4.68;;;-0.90;99.90;;;;;;4980472;28;20538;-77
2024/01/08 00:24:14;;;;;;;9.18;4.63;;;-0.90;99.90;;;;;;4980268;28;20129;-77
2024/01/08 00:26:40;;;;;;;10.07;4.78;;;-1.00;99.90;;;;;;4981038;28;20073;-76
2024/01/08 00:29:05;;;;;;;9.48;4.88;;;-1.00;99.90;;;;;;4995178;28;20051;-77
2024/01/08 00:31:31;;;;;;;9.52;4.63;;;-1.00;99.90;;;;;;4988320;28;20038;-76
2024/01/08 00:33:57;;;;;;;10.35;4.57;;;-1.00;99.90;;;;;;5005058;23;20034;-75
2024/01/08 00:36:23;;;;;;;12.25;5.10;;;-1.00;99.90;;;;;;4975256;28;20031;-75
2024/01/08 00:38:49;;;;;;;11.00;4.93;;;-1.10;99.90;;;;;;4986252;28;20041;-75
2024/01/08 00:41:15;;;;;;;9.55;4.88;;;-0.80;99.90;;;;;;4954042;28;20043;-75
2024/01/08 00:43:41;;;;;;;11.05;4.72;;;-1.00;99.90;;;;;;4961592;28;20405;-75
2024/01/08 00:46:07;;;;;;;11.85;4.78;;;-1.00;99.90;;;;;;4971057;28;20045;-75
2024/01/08 00:48:33;;;;;;;8.93;4.65;;;-1.00;99.90;;;;;;4998586;28;20038;-74
2024/01/08 00:50:58;;;;;;;10.80;4.90;;;-0.70;99.90;;;;;;4974226;28;20089;-75
2024/01/08 00:53:24;;;;;;;10.48;4.90;;;-1.10;99.90;;;;;;4974211;28;20046;-75
2024/01/08 00:55:49;;;;;;;10.98;4.97;;;-0.90;99.90;;;;;;4967415;28;20051;-75
2024/01/08 00:58:15;;;;;;;11.02;4.60;;;-1.10;99.90;;;;;;4978960;28;20047;-75
2024/01/08 01:00:41;;;;;;;9.73;5.13;;;-1.10;99.90;;;;;;4974932;28;20378;-75
2024/01/08 01:03:06;;;;;;;11.68;5.55;;;-1.10;99.90;;;;;;4979305;28;20050;-75
2024/01/08 01:05:35;;;;;;;14.57;5.10;;;-0.80;99.90;;;;;;4970831;28;20105;-75
2024/01/08 01:08:01;;;;;;;10.93;5.15;;;-1.10;99.90;;;;;;4976185;28;20357;-75
2024/01/08 01:10:26;;;;;;;10.07;5.25;;;-1.10;99.90;;;;;;4978494;28;20047;-75
2024/01/08 01:12:53;;;;;;;12.40;5.55;;;-1.10;99.90;;;;;;4969839;28;20050;-75
2024/01/08 01:15:19;;;;;;;8.60;4.55;;;-1.10;99.90;;;;;;4977066;28;20118;-75
2024/01/08 01:17:45;;;;;;;8.77;4.85;;;-1.10;99.90;;;;;;4970300;28;20565;-75
2024/01/08 01:20:10;;;;;;;8.90;4.80;;;-1.10;99.90;;;;;;4973031;28;20117;-75
2024/01/08 01:22:38;;;;;;;10.15;5.10;;;-1.10;99.90;;;;;;4977293;28;20042;-75
2024/01/08 01:25:06;;;;;;;9.30;4.80;;;-1.10;99.90;;;;;;4961969;28;20041;-75
2024/01/08 01:27:31;;;;;;;10.75;5.15;;;-1.20;99.90;;;;;;4957737;28;20051;-74
2024/01/08 01:29:57;;;;;;;10.85;5.20;;;-1.20;99.90;;;;;;4960812;28;20557;-74
2024/01/08 01:32:23;;;;;;;9.25;5.00;;;-1.20;99.90;;;;;;4946881;28;20506;-74
2024/01/08 01:34:48;;;;;;;11.98;5.38;;;-1.20;99.90;;;;;;4968119;28;20059;-74
2024/01/08 01:37:14;;;;;;;14.02;5.50;;;-1.10;99.90;;;;;;4951077;28;20042;-74
2024/01/08 01:39:39;;;;;;;11.70;4.90;;;-1.10;99.90;;;;;;4994947;28;20433;-74
2024/01/08 01:42:07;;;;;;;9.13;5.35;;;-1.10;99.90;;;;;;4953709;28;20045;-74
2024/01/08 01:44:35;;;;;;;9.73;5.13;;;-1.10;99.90;;;;;;4964123;28;20410;-74
2024/01/08 01:47:01;;;;;;;10.07;5.22;;;-1.10;99.90;;;;;;4976472;28;20046;-74
2024/01/08 01:49:27;;;;;;;12.32;5.63;;;-1.00;99.90;;;;;;4995568;28;20374;-74
2024/01/08 01:51:56;;;;;;;10.07;5.28;;;-1.00;99.90;;;;;;4961395;28;20100;-74
2024/01/08 01:54:23;;;;;;;12.27;5.72;;;-1.00;99.90;;;;;;4972618;28;20033;-74
2024/01/08 01:57:03;;;;;;;11.20;5.75;;;-1.00;99.90;;;;;;4997879;28;20129;-74
2024/01/08 01:59:29;;;;;;;10.48;5.30;;;-0.90;99.90;;;;;;4983941;28;20038;-74
2024/01/08 02:01:56;;;;;;;11.43;5.53;;;-0.90;99.90;;;;;;4970088;28;20091;-74
2024/01/08 02:04:25;;;;;;;10.75;5.25;;;-0.90;99.90;;;;;;4974073;28;20102;-74
2024/01/08 02:06:51;;;;;;;12.30;5.50;;;-0.90;99.90;;;;;;4987719;28;20050;-74
2024/01/08 02:09:18;;;;;;;10.82;5.68;;;-0.90;99.90;;;;;;4964003;28;20052;-74
2024/01/08 02:11:45;;;;;;;13.18;5.88;;;-0.90;99.90;;;;;;4960022;28;20097;-74
2024/01/08 02:14:15;;;;;;;10.52;5.55;;;-0.90;99.90;;;;;;4965989;28;20050;-75
2024/01/08 02:16:43;;;;;;;10.50;5.57;;;-0.80;99.90;;;;;;4968868;28;20052;-75
2024/01/08 02:19:09;;;;;;;9.85;5.10;;;-0.80;99.90;;;;;;4973282;28;20049;-75
2024/01/08 02:21:34;;;;;;;11.73;6.00;;;-0.80;99.90;;;;;;4968481;28;20089;-75
2024/01/08 02:24:00;;;;;;;10.95;5.97;;;-0.80;99.90;;;;;;4977209;28;20039;-75
2024/01/08 02:26:28;;;;;;;13.57;5.40;;;-0.70;99.90;;;;;;4988916;28;20034;-74
2024/01/08 02:28:53;;;;;;;10.45;5.43;;;0.30;99.90;;;;;;4943841;28;20461;-74
2024/01/08 02:31:20;;;;;;;11.75;5.70;;;-0.80;99.90;;;;;;4961760;28;20487;-74
2024/01/08 02:33:46;;;;;;;11.82;5.35;;;-0.70;99.90;;;;;;4976769;28;20046;-74
2024/01/08 02:36:11;;;;;;;11.80;5.63;;;-0.70;99.90;;;;;;4958996;28;20045;-74
2024/01/08 02:38:37;;;;;;;10.88;5.18;;;-0.70;99.90;;;;;;4997274;28;20065;-74
2024/01/08 02:41:02;;;;;;;11.65;6.20;;;-0.70;99.90;;;;;;4989874;28;20031;-74
2024/01/08 02:43:28;;;;;;;9.90;5.20;;;-0.60;99.90;;;;;;4965459;28;20058;-75
2024/01/08 02:45:54;;;;;;;13.43;6.45;;;-0.60;99.90;;;;;;4983914;28;20068;-75
2024/01/08 02:48:19;;;;;;;12.18;6.40;;;-0.60;99.90;;;;;;4970356;28;20497;-75
2024/01/08 02:50:48;;;;;;;12.90;6.45;;;-0.60;99.90;;;;;;4952732;28;20046;-75
2024/01/08 02:53:17;;;;;;;13.93;6.22;;;-0.50;99.90;;;;;;4968590;28;20436;-75
2024/01/08 02:55:42;;;;;;;11.65;6.07;;;0.30;99.90;;;;;;4983073;28;20122;-75
2024/01/08 02:58:09;;;;;;;10.57;6.00;;;-0.60;99.90;;;;;;4973363;28;20134;-74
2024/01/08 03:00:34;;;;;;;12.15;6.35;;;-0.60;99.90;;;;;;4974417;28;20038;-75
2024/01/08 03:03:00;;;;;;;11.10;6.25;;;-0.60;99.90;;;;;;4973963;28;20101;-75
2024/01/08 03:05:26;;;;;;;12.00;5.97;;;-0.50;99.90;;;;;;4956512;28;20085;-75
2024/01/08 03:07:51;;;;;;;11.10;6.05;;;-0.60;99.90;;;;;;4975889;28;20513;-75
2024/01/08 03:10:17;;;;;;;10.32;5.88;;;-0.50;99.90;;;;;;4975324;28;20455;-74
2024/01/08 03:12:42;;;;;;;12.57;6.65;;;-0.50;99.90;;;;;;4991871;28;20449;-74
2024/01/08 03:15:09;;;;;;;13.48;7.38;;;-0.50;99.90;;;;;;4955012;28;20505;-74
2024/01/08 03:17:35;;;;;;;13.60;7.00;;;-0.50;99.90;;;;;;4967396;28;20077;-74
2024/01/08 03:20:01;;;;;;;11.88;6.47;;;-0.50;99.90;;;;;;4985117;28;20073;-74
2024/01/08 03:22:27;;;;;;;12.73;6.53;;;-0.50;99.90;;;;;;4970193;28;20082;-75
2024/01/08 03:24:52;;;;;;;11.65;5.93;;;-0.50;99.90;;;;;;4970214;28;20661;-75
2024/01/08 03:27:18;;;;;;;13.75;6.60;;;-0.50;99.90;;;;;;4971804;28;20070;-75
2024/01/08 03:29:43;;;;;;;15.27;6.90;;;-0.50;99.90;;;;;;4986317;28;20046;-75
2024/01/08 03:32:09;;;;;;;12.45;6.38;;;-0.50;99.90;;;;;;4985085;28;20042;-75
2024/01/08 03:34:35;;;;;;;12.80;7.32;;;-0.50;99.90;;;;;;4975158;28;20570;-75
2024/01/08 03:37:00;;;;;;;13.07;6.85;;;-0.40;99.90;;;;;;4975670;28;20077;-75
2024/01/08 03:39:26;;;;;;;11.25;6.63;;;-0.40;99.90;;;;;;4975587;28;20117;-75
2024/01/08 03:41:52;;;;;;;12.00;6.43;;;-0.40;99.90;;;;;;4972582;28;20100;-75
2024/01/08 03:44:18;;;;;;;11.73;6.20;;;-0.40;99.90;;;;;;4975400;28;20042;-75
2024/01/08 03:46:47;;;;;;;13.98;6.90;;;-0.40;99.90;;;;;;4963074;28;20591;-75
2024/01/08 03:49:14;;;;;;;13.00;6.78;;;-0.40;99.90;;;;;;4991713;28;20052;-75
2024/01/08 03:51:39;;;;;;;11.57;6.35;;;-0.40;99.90;;;;;;4962834;28;20669;-75
2024/01/08 03:54:05;;;;;;;11.40;6.85;;;-0.40;99.90;;;;;;4973904;28;20046;-75
2024/01/08 03:56:31;;;;;;;13.00;6.80;;;-0.40;99.90;;;;;;4961842;28;20505;-75
2024/01/08 03:58:57;;;;;;;13.13;7.18;;;-0.10;99.90;;;;;;4952265;28;20086;-75
2024/01/08 04:01:23;;;;;;;11.95;6.93;;;-0.40;99.90;;;;;;4962186;28;20104;-74
2024/01/08 04:03:49;;;;;;;12.15;6.90;;;-0.40;99.90;;;;;;4980017;28;20050;-74
2024/01/08 04:06:17;;;;;;;13.40;6.65;;;-0.30;99.90;;;;;;4971453;28;20046;-74
2024/01/08 04:08:43;;;;;;;12.63;6.40;;;-0.30;99.90;;;;;;4971941;28;20764;-74
2024/01/08 04:11:09;;;;;;;14.32;7.07;;;-0.30;99.90;;;;;;4951751;28;20046;-75
2024/01/08 04:13:38;;;;;;;12.00;6.57;;;-0.30;99.90;;;;;;4962302;28;20123;-74
2024/01/08 04:16:04;;;;;;;10.95;6.18;;;-0.30;99.90;;;;;;4970046;28;20038;-74
2024/01/08 04:18:30;;;;;;;13.32;6.32;;;-0.30;99.90;;;;;;4964459;28;20084;-74
2024/01/08 04:20:55;;;;;;;12.52;6.93;;;-0.30;99.90;;;;;;4977195;28;20035;-75
2024/01/08 04:23:21;;;;;;;10.60;6.20;;;-0.30;99.90;;;;;;4990468;28;20061;-74
2024/01/08 04:25:46;;;;;;;12.23;6.28;;;-0.30;99.90;;;;;;4968383;28;20045;-74
2024/01/08 04:28:12;;;;;;;12.95;6.53;;;-0.30;99.90;;;;;;4968272;28;20050;-74
2024/01/08 04:30:38;;;;;;;9.52;5.68;;;-0.20;99.90;;;;;;4974349;28;20496;-74
2024/01/08 04:33:05;;;;;;;12.20;6.03;;;-0.20;99.90;;;;;;4977350;28;20153;-75
2024/01/08 04:35:34;;;;;;;9.98;5.70;;;-0.30;99.90;;;;;;4958501;28;20442;-75
2024/01/08 04:38:00;;;;;;;10.23;5.85;;;-0.30;99.90;;;;;;4974431;28;20073;-75
2024/01/08 04:40:26;;;;;;;11.45;5.95;;;-0.20;99.90;;;;;;4990996;28;20444;-75
2024/01/08 04:42:51;;;;;;;10.18;5.60;;;-0.20;99.90;;;;;;4977677;28;20049;-74
2024/01/08 04:45:17;;;;;;;10.30;5.90;;;-0.20;99.90;;;;;;4976054;28;20097;-74
2024/01/08 04:47:43;;;;;;;12.23;5.75;;;-0.20;99.90;;;;;;4980543;28;20121;-74
2024/01/08 04:50:09;;;;;;;11.73;6.25;;;-0.20;99.90;;;;;;4977302;28;20050;-74
2024/01/08 04:52:34;;;;;;;11.40;6.00;;;-0.20;99.90;;;;;;4987064;28;20133;-74
2024/01/08 04:55:02;;;;;;;9.32;5.82;;;-0.20;99.90;;;;;;4974013;28;20457;-74
2024/01/08 04:57:29;;;;;;;12.85;5.80;;;-0.20;99.90;;;;;;4962781;28;20035;-74
2024/01/08 04:59:55;;;;;;;11.90;5.93;;;-0.20;99.90;;;;;;4975664;28;20050;-74
2024/01/08 05:02:20;;;;;;;10.73;5.30;;;-0.20;99.90;;;;;;4991011;28;20172;-74
2024/01/08 05:04:46;;;;;;;11.05;5.75;;;-0.20;99.90;;;;;;4988010;28;20031;-74
2024/01/08 05:07:12;;;;;;;10.18;5.32;;;-0.10;99.90;;;;;;4977170;28;20043;-74
2024/01/08 05:09:38;;;;;;;10.18;5.50;;;-0.20;99.90;;;;;;4983201;28;20058;-74
2024/01/08 05:12:05;;;;;;;9.48;5.47;;;-0.20;99.90;;;;;;4970961;28;20054;-73
2024/01/08 05:14:30;;;;;;;11.95;5.22;;;-0.20;99.90;;;;;;4973380;28;20034;-74
2024/01/08 05:16:56;;;;;;;10.10;5.18;;;-0.20;99.90;;;;;;4973693;28;20049;-75
2024/01/08 05:19:21;;;;;;;9.75;5.65;;;-0.20;99.90;;;;;;4974113;28;20041;-75
2024/01/08 05:21:47;;;;;;;10.98;5.65;;;-0.20;99.90;;;;;;4980381;28;20093;-74
2024/01/08 05:24:13;;;;;;;10.00;5.03;;;-0.30;99.90;;;;;;4982823;28;20495;-74
2024/01/08 05:26:39;;;;;;;8.23;4.75;;;-0.30;99.90;;;;;;4953427;28;20046;-75
2024/01/08 05:29:04;;;;;;;9.70;4.90;;;-0.30;99.90;;;;;;4983254;28;20078;-74
2024/01/08 05:31:30;;;;;;;8.45;4.90;;;-0.30;99.90;;;;;;4954741;28;20047;-76
2024/01/08 05:33:55;;;;;;;9.50;5.07;;;-0.30;99.90;;;;;;4966553;28;20046;-75
2024/01/08 05:36:21;;;;;;;10.45;5.03;;;-0.30;99.90;;;;;;4982276;28;20062;-75
2024/01/08 05:38:47;;;;;;;9.88;5.03;;;-0.30;99.90;;;;;;4981034;28;20121;-75
2024/01/08 05:41:13;;;;;;;10.52;4.93;;;-0.30;99.90;;;;;;4970819;28;20042;-75
2024/01/08 05:43:38;;;;;;;9.10;4.50;;;-0.30;99.90;;;;;;4961046;28;20478;-75
2024/01/08 05:46:07;;;;;;;8.73;4.65;;;-0.30;99.90;;;;;;4976775;28;20053;-75
2024/01/08 05:48:37;;;;;;;7.50;4.38;;;-0.30;99.90;;;;;;4979126;28;20038;-76
2024/01/08 05:51:09;;;;;;;10.95;4.78;;;-0.30;99.90;;;;;;4964487;28;20043;-75
2024/01/08 05:53:35;;;;;;;7.38;4.10;;;-0.30;99.90;;;;;;4986026;28;20501;-75
2024/01/08 05:56:00;;;;;;;7.60;4.68;;;-0.30;99.90;;;;;;4961419;28;20035;-75
2024/01/08 05:58:26;;;;;;;8.55;4.55;;;-0.30;99.90;;;;;;4972390;28;20114;-75
2024/01/08 06:00:53;;;;;;;9.30;4.75;;;-0.40;99.90;;;;;;4971189;28;20040;-75
2024/01/08 06:03:23;;;;;;;10.38;4.57;;;-0.30;99.90;;;;;;4963959;28;20042;-76
2024/01/08 06:05:50;;;;;;;12.48;4.50;;;-0.40;99.90;;;;;;4963931;28;20053;-76
2024/01/08 06:08:16;;;;;;;8.73;4.68;;;-0.30;99.90;;;;;;4966127;28;20391;-76
2024/01/08 06:10:42;;;;;;;8.70;4.85;;;-0.40;99.90;;;;;;4982433;28;20044;-76
2024/01/08 06:13:09;;;;;;;8.05;4.43;;;-0.20;99.90;;;;;;4970501;28;20035;-76
2024/01/08 06:15:35;;;;;;;8.30;4.63;;;-0.30;99.90;;;;;;4987456;28;20037;-76
2024/01/08 06:18:06;;;;;;;7.70;4.57;;;-0.40;99.90;;;;;;4990628;28;20050;-76
2024/01/08 06:20:33;;;;;;;8.45;4.78;;;-0.40;99.90;;;;;;4988723;28;20034;-75
2024/01/08 06:22:59;;;;;;;9.10;4.90;;;-0.40;99.90;;;;;;4980176;28;20038;-75
2024/01/08 06:25:25;;;;;;;9.25;4.72;;;-0.40;99.90;;;;;;4967416;28;20050;-75
2024/01/08 06:27:50;;;;;;;8.73;5.00;;;-0.20;99.90;;;;;;4972924;28;20500;-75
2024/01/08 06:30:17;;;;;;;11.13;5.55;;;-0.30;99.90;;;;;;4997328;28;20046;-75
2024/01/08 06:32:43;;;;;;;9.82;4.85;;;0.40;99.90;;;;;;4976882;28;20034;-75
2024/01/08 06:37:40;;;;;;;8.15;4.60;;;-0.30;99.90;;;;;;5037336;28;20049;-72
2024/01/08 06:40:06;;;;;;;10.73;5.32;;;-0.30;99.90;;;;;;5035538;28;20436;-72
2024/01/08 06:42:32;;;;;;;10.15;5.20;;;-0.30;99.90;;;;;;5037684;28;20038;-72
2024/01/08 06:44:58;;;;;;;12.90;5.47;;;-0.30;99.90;;;;;;5026100;28;20548;-69
2024/01/08 06:47:23;;;;;;;10.52;5.53;;;-0.30;99.90;;;;;;5015128;28;20299;-69
2024/01/08 06:49:49;;;;;;;11.70;5.68;;;-0.30;99.90;;;;;;5034668;28;20055;-68
2024/01/08 06:52:15;;;;;;;10.80;5.57;;;-0.30;99.90;;;;;;5025715;28;20072;-70
2024/01/08 06:54:40;;;;;;;9.30;5.22;;;-0.30;99.90;;;;;;5022881;28;20096;-69
2024/01/08 06:57:06;;;;;;;10.30;5.30;;;-0.30;99.90;;;;;;5025470;28;20030;-69
2024/01/08 06:59:31;;;;;;;11.25;5.53;;;-0.30;99.90;;;;;;5016348;28;20046;-69
2024/01/08 07:01:57;;;;;;;12.95;5.60;;;-1.70;99.90;;;;;;5030416;28;20567;-68
2024/01/08 07:04:23;;;;;;;9.65;5.55;;;-0.30;99.90;;;;;;5030379;28;20713;-70
2024/01/08 07:06:48;;;;;;;10.77;5.35;;;-0.30;99.90;;;;;;5020918;28;20051;-69
2024/01/08 07:09:14;;;;;;;10.90;6.10;;;-0.30;99.90;;;;;;5017790;28;20095;-66
2024/01/08 07:11:39;;;;;;;10.60;5.60;;;-0.40;99.90;;;;;;5028298;28;20034;-68
2024/01/08 07:14:05;;;;;;;10.25;5.25;;;-0.40;99.90;;;;;;5023619;28;20041;-67
2024/01/08 07:16:31;;;;;;;10.50;5.60;;;-0.30;99.90;;;;;;5025422;28;20037;-70
2024/01/08 07:18:56;;;;;;;9.98;5.28;;;-0.40;99.90;;;;;;5029603;28;20554;-71
2024/01/08 07:21:22;;;;;;;12.65;5.57;;;-0.30;99.90;;;;;;5031398;28;20033;-71
2024/01/08 07:23:49;;;;;;;12.43;5.53;;;-0.30;99.90;;;;;;5034241;28;20041;-70
2024/01/08 07:26:16;;;;;;;12.15;5.30;;;-0.30;99.90;;;;;;5032831;28;20052;-70
2024/01/08 07:28:45;;;;;;;17.02;6.35;;;-0.30;99.90;;;;;;5031811;28;20131;-70
2024/01/08 07:31:12;;;;;;;13.35;5.90;;;-0.30;99.90;;;;;;5026733;28;20046;-69
2024/01/08 07:33:39;;;;;;;14.52;8.80;;;-0.30;99.90;;;;;;5025370;28;20038;-69
2024/01/08 07:36:05;;;;;;;13.27;6.80;;;-0.30;99.90;;;;;;5022507;28;20041;-68
2024/01/08 07:38:31;;;;;;;13.02;6.47;;;-0.30;99.90;;;;;;5017778;28;20070;-69
2024/01/08 07:40:57;;;;;;;11.77;5.63;;;-0.30;99.90;;;;;;5023230;28;20142;-68
2024/01/08 07:43:23;;;;;;;11.85;6.20;;;-0.30;99.90;;;;;;5025925;28;20491;-69
2024/01/08 07:45:48;;;;;;;11.05;5.60;;;-0.30;99.90;;;;;;5013533;28;20080;-67
2024/01/08 07:48:14;;;;;;;10.32;6.35;;;-0.30;99.90;;;;;;5024501;28;20168;-69
2024/01/08 07:50:40;;;;;;;11.88;7.55;;;-0.30;99.90;;;;;;5028446;28;20052;-69
2024/01/08 07:53:05;;;;;;;12.70;7.70;;;-0.30;99.90;;;;;;5026394;28;20029;-69
2024/01/08 07:55:31;;;;;;;11.68;5.88;;;-0.30;99.90;;;;;;5023050;28;20148;-69
2024/01/08 07:57:57;;;;;;;11.05;5.07;;;-0.30;99.90;;;;;;5029092;28;21410;-67
2024/01/08 08:00:24;;;;;;;11.82;5.65;;;-0.30;99.90;;;;;;5019003;28;20042;-70
2024/01/08 08:02:50;;;;;;;11.88;5.80;;;-0.30;99.90;;;;;;5026304;28;20042;-69
2024/01/08 08:05:16;;;;;;;10.35;6.05;;;-0.30;99.90;;;;;;5026120;28;20049;-70
2024/01/08 08:07:42;;;;;;;13.07;5.60;;;-0.30;99.90;;;;;;5029487;28;20124;-69
2024/01/08 08:10:08;;;;;;;9.77;5.13;;;-0.20;99.90;;;;;;5027920;28;20132;-67
2024/01/08 08:12:34;;;;;;;9.90;5.20;;;-0.30;99.90;;;;;;5027701;28;20056;-70
2024/01/08 08:15:00;;;;;;;12.63;6.10;;;-0.30;99.90;;;;;;5026328;28;20045;-69
2024/01/08 08:17:26;;;;;;;11.02;5.78;;;-0.30;99.90;;;;;;5030242;28;20053;-69
2024/01/08 08:19:51;;;;;;;14.25;6.72;;;-0.20;99.90;;;;;;5028680;28;20411;-69
2024/01/08 08:22:17;;;;;;;16.88;7.13;;;-0.20;99.90;;;;;;5026446;28;20037;-66
2024/01/08 08:24:44;;;;;;;14.73;5.63;;;-0.20;99.90;;;;;;5028855;28;20425;-70
2024/01/08 08:27:10;;;;;;;10.77;5.65;;;-0.20;99.90;;;;;;5029354;28;20038;-69
2024/01/08 08:29:44;;;;;;;10.15;5.18;;;-0.20;99.90;;;;;;5029826;28;20102;-68
2024/01/08 08:32:09;;;;;;;9.43;5.20;;;-0.20;99.90;;;;;;5025752;28;20045;-70
2024/01/08 08:34:36;;;;;;;10.68;5.50;;;-0.20;99.90;;;;;;5029556;28;20033;-69
2024/01/08 08:37:02;;;;;;;10.80;4.85;;;-0.20;99.90;;;;;;5025710;28;20041;-69
2024/01/08 08:39:27;;;;;;;9.57;4.40;;;-0.10;99.90;;;;;;5028303;28;20087;-68
2024/01/08 08:41:55;;;;;;;8.63;4.80;;;-0.20;99.90;;;;;;5023242;28;20405;-68
2024/01/08 08:44:21;;;;;;;10.02;4.68;;;-0.10;99.90;;;;;;5017058;28;20049;-66
2024/01/08 08:46:46;;;;;;;11.57;5.95;;;-0.10;99.90;;;;;;5014288;28;20053;-66
2024/01/08 08:49:13;;;;;;;8.63;5.03;;;-0.10;99.90;;;;;;5026382;28;20045;-69
2024/01/08 08:51:40;;;;;;;8.57;4.38;;;-0.10;99.90;;;;;;5020185;28;20052;-68
2024/01/08 08:54:06;;;;;;;11.63;5.53;;;-0.10;99.90;;;;;;5033402;28;20064;-68
2024/01/08 08:56:32;;;;;;;9.55;4.97;;;-0.10;99.90;;;;;;5023984;28;20502;-69
2024/01/08 08:58:59;;;;;;;12.65;4.72;;;0.00;99.90;;;;;;5019444;28;20037;-69
2024/01/08 09:01:25;;;;;;;10.20;4.38;;;0.00;99.90;;;;;;5027997;28;20524;-68
2024/01/08 09:03:52;;;;;;;7.95;4.10;;;0.00;99.90;;;;;;5023280;28;20121;-68
2024/01/08 09:06:20;;;;;;;8.55;4.70;;;0.00;99.90;;;;;;5024360;28;20066;-68
2024/01/08 09:08:47;;;;;;;8.55;4.22;;;0.00;99.90;;;;;;5025483;28;20056;-68
2024/01/08 09:11:13;;;;;;;9.55;4.90;;;0.00;99.90;;;;;;5021134;28;20041;-68
2024/01/08 09:13:38;;;;;;;9.23;4.22;;;0.00;99.90;;;;;;5013651;28;20033;-68
2024/01/08 09:16:04;;;;;;;7.82;4.03;;;0.00;99.90;;;;;;5027026;28;20484;-68
2024/01/08 09:18:30;;;;;;;8.00;4.13;;;0.00;99.90;;;;;;5019266;28;20048;-65
2024/01/08 09:20:55;;;;;;;6.18;3.63;;;0.10;99.90;;;;;;5021866;28;20432;-66
2024/01/08 09:23:21;;;;;;;14.50;4.63;;;0.10;99.90;;;;;;5025605;28;20033;-69
2024/01/08 09:25:47;;;;;;;8.75;4.55;;;0.10;99.90;;;;;;5012802;28;20046;-68
2024/01/08 09:28:13;;;;;;;8.48;4.47;;;0.10;99.90;;;;;;5014462;28;20258;-68
2024/01/08 09:30:38;;;;;;;8.32;4.38;;;0.20;99.90;;;;;;5015769;28;20044;-67
2024/01/08 09:33:04;;;;;;;10.30;4.50;;;0.20;99.90;;;;;;5031793;28;20140;-67
2024/01/08 09:35:29;;;;;;;8.95;4.18;;;0.20;99.90;;;;;;5013527;28;20098;-68
2024/01/08 09:37:55;;;;;;;7.22;4.20;;;0.20;99.90;;;;;;5024806;28;20034;-66
2024/01/08 09:40:21;;;;;;;9.75;4.60;;;0.20;99.90;;;;;;5031884;28;20064;-69
2024/01/08 09:42:51;;;;;;;9.43;4.72;;;0.20;99.90;;;;;;5028248;28;20022;-69
2024/01/08 09:45:23;;;;;;;9.68;4.45;;;0.20;99.90;;;;;;5030928;28;20038;-69
2024/01/08 09:47:49;;;;;;;10.43;4.57;;;0.20;99.90;;;;;;5022392;28;20038;-68
2024/01/08 09:50:15;;;;;;;10.93;5.25;;;0.20;99.90;;;;;;5026663;28;20045;-68
2024/01/08 09:52:43;;;;;;;10.35;5.05;;;0.30;99.90;;;;;;5026664;28;20046;-68
2024/01/08 09:55:10;;;;;;;9.60;5.43;;;0.20;99.90;;;;;;5025423;28;20057;-67
2024/01/08 09:57:36;;;;;;;10.18;4.95;;;0.30;99.90;;;;;;5033205;28;20303;-67
2024/01/08 10:00:03;;;;;;;11.60;4.72;;;0.30;99.90;;;;;;5029080;28;20049;-67
2024/01/08 10:02:28;;;;;;;8.90;4.70;;;0.30;99.90;;;;;;5021140;28;20037;-67
2024/01/08 10:04:54;;;;;;;9.13;5.00;;;0.30;99.90;;;;;;5022639;28;20033;-68
2024/01/08 10:07:20;;;;;;;9.50;5.25;;;0.30;99.90;;;;;;5020261;28;20449;-68
2024/01/08 10:09:45;;;;;;;10.18;4.97;;;0.30;99.90;;;;;;5028781;28;20033;-68
2024/01/08 10:12:11;;;;;;;11.50;4.88;;;0.30;99.90;;;;;;5035098;28;20045;-67
2024/01/08 10:14:37;;;;;;;10.90;5.68;;;0.40;99.90;;;;;;5030793;28;20402;-68
2024/01/08 10:17:03;;;;;;;11.35;5.38;;;0.40;99.90;;;;;;5026563;28;20048;-68
2024/01/08 10:19:28;;;;;;;10.00;4.50;;;0.40;99.90;;;;;;5024382;28;20033;-68
2024/01/08 10:22:11;;;;;;;9.52;5.03;;;0.40;99.90;;;;;;5033799;28;20140;-69
2024/01/08 10:24:38;;;;;;;13.38;4.57;;;0.40;99.90;;;;;;5023849;28;20045;-66
2024/01/08 10:27:06;;;;;;;8.60;4.90;;;0.40;99.90;;;;;;5029480;28;20044;-68
2024/01/08 10:29:32;;;;;;;8.65;4.95;;;0.40;99.90;;;;;;5018954;28;20402;-67
2024/01/08 10:31:58;;;;;;;8.43;4.63;;;0.40;99.90;;;;;;5029607;28;20041;-67
2024/01/08 10:34:26;;;;;;;8.13;4.38;;;0.40;99.90;;;;;;5015026;28;20037;-67
2024/01/08 10:36:52;;;;;;;8.77;4.32;;;0.40;99.90;;;;;;5028815;28;20152;-67
2024/01/08 10:39:19;;;;;;;6.80;4.00;;;0.50;99.90;;;;;;5023479;28;20036;-67
2024/01/08 10:41:44;;;;;;;7.40;3.90;;;0.50;99.90;;;;;;5025990;28;20521;-67
2024/01/08 10:44:10;;;;;;;8.73;4.20;;;0.50;99.90;;;;;;5015140;28;20041;-67
2024/01/08 10:47:01;;;;;;;8.82;3.90;;;0.50;99.90;;;;;;5021845;28;20034;-67
2024/01/08 10:49:38;;;;;;;9.88;4.20;;;0.50;99.90;;;;;;5019246;28;21142;-67
2024/01/08 10:52:20;;;;;;;7.05;4.00;;;0.60;99.90;;;;;;5028929;28;20120;-67
2024/01/08 10:54:57;;;;;;;7.20;4.22;;;0.50;99.90;;;;;;5032902;28;20421;-67
2024/01/08 10:57:34;;;;;;;6.82;3.97;;;0.60;99.90;;;;;;5021570;28;20140;-68
2024/01/08 11:00:01;;;;;;;11.23;4.70;;;0.60;99.90;;;;;;5027883;28;20572;-68
2024/01/08 11:02:27;;;;;;;6.82;3.83;;;0.60;99.90;;;;;;5019803;28;20037;-67
2024/01/08 11:05:00;;;;;;;14.90;8.20;;;0.60;99.90;;;;;;5040512;28;20045;-67
2024/01/08 11:07:29;;;;;;;10.40;6.10;;;0.60;99.90;;;;;;5031831;28;20056;-67
2024/01/08 11:10:03;;;;;;;8.35;4.63;;;0.60;99.90;;;;;;5023189;28;20125;-67
2024/01/08 11:12:29;;;;;;;8.30;3.47;;;0.70;99.90;;;;;;5021375;28;20447;-67
2024/01/08 11:15:01;;;;;;;7.32;4.07;;;0.70;99.90;;;;;;5030248;28;20037;-67
2024/01/08 11:17:27;;;;;;;9.98;4.25;;;0.70;99.90;;;;;;5026779;28;20057;-68
2024/01/08 11:19:55;;;;;;;7.85;4.20;;;0.70;99.90;;;;;;5032630;28;20040;-68
2024/01/08 11:22:21;;;;;;;9.32;4.10;;;0.70;99.90;;;;;;5011469;28;20065;-68
2024/01/08 11:24:50;;;;;;;10.00;4.78;;;0.70;99.90;;;;;;5019459;28;20053;-68
2024/01/08 11:27:16;;;;;;;9.15;4.30;;;0.70;99.90;;;;;;5018738;28;20025;-67
2024/01/08 11:29:43;;;;;;;10.95;4.60;;;0.70;99.90;;;;;;5022138;28;20080;-67
2024/01/08 11:33:01;;;;;;;9.10;4.53;;;0.70;99.90;;;;;;5027547;28;20049;-67
2024/01/08 11:35:29;;;;;;;8.75;4.82;;;0.70;99.90;;;;;;5016447;28;20100;-67
2024/01/08 11:38:13;;;;;;;8.38;4.47;;;0.70;99.90;;;;;;5020623;28;20056;-67
2024/01/08 11:40:40;;;;;;;8.10;4.50;;;0.70;99.90;;;;;;5035152;28;20048;-67
2024/01/08 11:43:08;;;;;;;8.60;4.35;;;0.70;99.90;;;;;;5017441;28;20055;-67
2024/01/08 11:45:34;;;;;;;7.38;4.35;;;0.70;99.90;;;;;;5023847;28;20052;-67
2024/01/08 11:48:01;;;;;;;8.43;4.22;;;0.60;99.90;;;;;;5029805;28;20033;-68
2024/01/08 11:50:27;;;;;;;9.20;4.75;;;0.60;99.90;;;;;;5037239;28;20502;-68
2024/01/08 11:52:55;;;;;;;8.38;4.30;;;0.60;99.90;;;;;;5032581;28;20047;-68
2024/01/08 11:55:22;;;;;;;12.82;6.25;;;0.60;99.90;;;;;;5028061;28;20446;-68
2024/01/08 11:57:48;;;;;;;13.18;7.38;;;0.70;99.90;;;;;;5031464;28;20099;-68
2024/01/08 12:00:18;;;;;;;11.30;6.75;;;0.80;99.90;;;;;;5024701;28;20065;-68
2024/01/08 12:02:44;;;;;;;9.77;6.18;;;0.90;99.90;;;;;;5030032;28;20040;-66
2024/01/08 12:05:11;;;;;;;11.00;6.13;;;1.00;99.90;;;;;;5029334;28;20037;-66
2024/01/08 12:07:39;;;;;;;10.27;6.32;;;1.10;99.90;;;;;;5029365;28;20042;-66
2024/01/08 12:10:07;;;;;;;8.82;4.57;;;1.20;99.90;;;;;;5035831;28;20038;-67
2024/01/08 12:12:34;;;;;;;7.35;4.38;;;1.30;99.90;;;;;;5027177;28;20083;-66
2024/01/08 12:15:00;;;;;;;8.93;4.40;;;1.50;99.90;;;;;;5029128;28;20505;-66
2024/01/08 12:17:26;;;;;;;8.18;5.10;;;1.60;99.90;;;;;;5029787;28;20045;-67
2024/01/08 12:19:53;;;;;;;11.85;5.00;;;1.60;99.90;;;;;;5029582;28;20030;-66
2024/01/08 12:22:19;;;;;;;8.77;4.63;;;1.70;99.90;;;;;;5023010;28;20038;-66
2024/01/08 12:24:48;;;;;;;8.10;5.05;;;1.80;99.90;;;;;;5027442;28;20150;-66
2024/01/08 12:27:19;;;;;;;7.65;4.05;;;1.90;99.90;;;;;;5019279;28;20129;-66
2024/01/08 12:29:45;;;;;;;7.47;4.55;;;2.00;99.90;;;;;;5017971;28;20052;-66
2024/01/08 12:32:14;;;;;;;8.18;3.50;;;2.00;99.90;;;;;;5009906;28;20517;-66
2024/01/08 12:34:39;;;;;;;6.85;4.10;;;2.10;99.90;;;;;;5023338;28;20044;-66
2024/01/08 12:37:07;;;;;;;7.95;4.65;;;2.30;99.90;;;;;;5025907;22;20047;-67
2024/01/08 12:39:34;;;;;;;8.88;4.32;;;2.50;99.90;;;;;;4991118;28;20062;-67
2024/01/08 12:42:16;;;;;;;9.05;4.55;;;2.70;99.90;;;;;;4966053;28;20038;-67
2024/01/08 12:44:42;;;;;;;;;;;2.80;99.90;;;;;;4966740;28;20506;-67